createdAt,value
2018-06-09T00:00:51.307Z,1008.44
2018-06-09T00:01:51.288Z,1008.40
2018-06-09T00:02:51.303Z,1008.43
2018-06-09T00:03:51.508Z,1008.43
2018-06-09T00:04:51.295Z,1008.41
2018-06-09T00:05:51.504Z,1008.39
2018-06-09T00:06:51.312Z,1008.38
2018-06-09T00:07:51.316Z,1008.42
2018-06-09T00:08:51.522Z,1008.39
2018-06-09T00:09:51.517Z,1008.38
2018-06-09T00:10:51.335Z,1008.41
2018-06-09T00:11:51.316Z,1008.44
2018-06-09T00:12:51.535Z,1008.44
2018-06-09T00:13:51.347Z,1008.41
2018-06-09T00:14:51.336Z,1008.37
2018-06-09T00:15:51.540Z,1008.34
2018-06-09T00:16:51.333Z,1008.31
2018-06-09T00:17:51.549Z,1008.32
2018-06-09T00:18:51.339Z,1008.32
2018-06-09T00:19:51.339Z,1008.29
2018-06-09T00:20:51.354Z,1008.31
2018-06-09T00:21:51.356Z,1008.32
2018-06-09T00:22:51.348Z,1008.36
2018-06-09T00:23:51.355Z,1008.37
2018-06-09T00:24:51.559Z,1008.35
2018-06-09T00:25:51.355Z,1008.36
2018-06-09T00:26:51.361Z,1008.33
2018-06-09T00:27:51.564Z,1008.30
2018-06-09T00:28:51.374Z,1008.29
2018-06-09T00:29:51.568Z,1008.32
2018-06-09T00:30:51.368Z,1008.27
2018-06-09T00:31:51.575Z,1008.31
2018-06-09T00:32:51.388Z,1008.28
2018-06-09T00:33:51.382Z,1008.25
2018-06-09T00:34:51.382Z,1008.25
2018-06-09T00:35:51.410Z,1008.26
2018-06-09T00:36:51.400Z,1008.26
2018-06-09T00:37:51.389Z,1008.25
2018-06-09T00:38:51.599Z,1008.24
2018-06-09T00:39:51.394Z,1008.18
2018-06-09T00:40:51.396Z,1008.21
2018-06-09T00:41:51.400Z,1008.19
2018-06-09T00:42:51.418Z,1008.18
2018-06-09T00:43:51.406Z,1008.16
2018-06-09T00:44:51.408Z,1008.21
2018-06-09T00:45:51.411Z,1008.18
2018-06-09T00:46:51.616Z,1008.21
2018-06-09T00:47:51.432Z,1008.19
2018-06-09T00:48:51.419Z,1008.17
2018-06-09T00:49:51.425Z,1008.19
2018-06-09T00:50:51.441Z,1008.12
2018-06-09T00:51:51.429Z,1008.17
2018-06-09T00:52:51.432Z,1008.15
2018-06-09T00:53:51.648Z,1008.16
2018-06-09T00:54:51.439Z,1008.16
2018-06-09T00:55:51.461Z,1008.14
2018-06-09T00:56:51.441Z,1008.12
2018-06-09T00:57:51.469Z,1008.13
2018-06-09T00:58:51.650Z,1008.09
2018-06-09T00:59:51.668Z,1008.08
2018-06-09T01:00:51.463Z,1008.09
2018-06-09T01:01:51.470Z,1008.04
2018-06-09T01:02:51.473Z,1008.01
2018-06-09T01:03:51.664Z,1008.01
2018-06-09T01:04:51.465Z,1008.04
2018-06-09T01:05:51.467Z,1008.02
2018-06-09T01:06:51.473Z,1008.02
2018-06-09T01:07:51.473Z,1008.03
2018-06-09T01:08:51.693Z,1008.07
2018-06-09T01:09:51.492Z,1008.10
2018-06-09T01:10:51.479Z,1008.06
2018-06-09T01:11:51.495Z,1008.11
2018-06-09T01:12:51.495Z,1008.08
2018-06-09T01:13:51.703Z,1008.08
2018-06-09T01:14:51.501Z,1008.07
2018-06-09T01:15:51.496Z,1008.07
2018-06-09T01:16:51.497Z,1008.09
2018-06-09T01:17:51.501Z,1008.11
2018-06-09T01:18:51.520Z,1008.11
2018-06-09T01:19:51.507Z,1008.09
2018-06-09T01:20:51.510Z,1008.13
2018-06-09T01:21:51.524Z,1008.15
2018-06-09T01:22:51.716Z,1008.12
2018-06-09T01:23:51.516Z,1008.11
2018-06-09T01:24:51.522Z,1008.09
2018-06-09T01:25:51.527Z,1008.10
2018-06-09T01:26:51.537Z,1008.09
2018-06-09T01:27:51.543Z,1008.07
2018-06-09T01:28:51.734Z,1008.08
2018-06-09T01:29:51.536Z,1008.06
2018-06-09T01:30:51.547Z,1008.06
2018-06-09T01:31:51.541Z,1008.03
2018-06-09T01:32:51.541Z,1008.02
2018-06-09T01:33:51.546Z,1008.05
2018-06-09T01:34:51.560Z,1008.03
2018-06-09T01:35:51.550Z,1008.02
2018-06-09T01:36:51.553Z,1008.02
2018-06-09T01:37:51.565Z,1008.01
2018-06-09T01:38:51.573Z,1008.01
2018-06-09T01:39:51.562Z,1008.03
2018-06-09T01:40:51.563Z,1008.00
2018-06-09T01:41:51.582Z,1008.04
2018-06-09T01:42:51.578Z,1008.04
2018-06-09T01:43:51.790Z,1008.01
2018-06-09T01:44:51.574Z,1008.03
2018-06-09T01:45:51.588Z,1008.05
2018-06-09T01:46:51.583Z,1008.03
2018-06-09T01:47:51.786Z,1008.04
2018-06-09T01:48:51.587Z,1008.02
2018-06-09T01:49:51.590Z,1008.02
2018-06-09T01:50:51.795Z,1007.98
2018-06-09T01:51:51.604Z,1007.97
2018-06-09T01:52:51.607Z,1007.99
2018-06-09T01:53:51.806Z,1007.97
2018-06-09T01:54:51.602Z,1007.95
2018-06-09T01:55:51.808Z,1007.97
2018-06-09T01:56:51.619Z,1007.91
2018-06-09T01:57:51.625Z,1007.97
2018-06-09T01:58:51.634Z,1007.99
2018-06-09T01:59:51.644Z,1007.99
2018-06-09T02:00:51.623Z,1008.03
2018-06-09T02:01:51.622Z,1008.06
2018-06-09T02:02:51.840Z,1008.05
2018-06-09T02:03:51.858Z,1008.05
2018-06-09T02:04:51.630Z,1008.03
2018-06-09T02:05:51.860Z,1008.05
2018-06-09T02:06:51.841Z,1008.03
2018-06-09T02:07:51.656Z,1008.04
2018-06-09T02:08:51.655Z,1008.01
2018-06-09T02:09:51.645Z,1008.02
2018-06-09T02:10:51.665Z,1008.01
2018-06-09T02:11:51.664Z,1008.01
2018-06-09T02:12:51.859Z,1008.05
2018-06-09T02:13:51.666Z,1008.08
2018-06-09T02:14:51.904Z,1008.05
2018-06-09T02:15:51.668Z,1008.03
2018-06-09T02:16:51.870Z,1008.07
2018-06-09T02:17:51.882Z,1008.04
2018-06-09T02:18:51.670Z,1008.04
2018-06-09T02:19:51.674Z,1008.01
2018-06-09T02:20:51.688Z,1007.98
2018-06-09T02:21:51.677Z,1007.97
2018-06-09T02:22:51.707Z,1007.96
2018-06-09T02:23:51.888Z,1007.99
2018-06-09T02:24:51.887Z,1008.03
2018-06-09T02:25:51.703Z,1008.02
2018-06-09T02:26:51.894Z,1008.00
2018-06-09T02:27:51.696Z,1008.03
2018-06-09T02:28:51.916Z,1008.01
2018-06-09T02:29:51.907Z,1008.03
2018-06-09T02:30:51.721Z,1008.04
2018-06-09T02:31:51.720Z,1008.07
2018-06-09T02:32:51.710Z,1008.08
2018-06-09T02:33:51.917Z,1008.08
2018-06-09T02:34:51.715Z,1008.09
2018-06-09T02:35:51.717Z,1008.11
2018-06-09T02:36:51.721Z,1008.04
2018-06-09T02:37:51.722Z,1008.07
2018-06-09T02:38:51.726Z,1008.07
2018-06-09T02:39:51.929Z,1008.08
2018-06-09T02:40:51.732Z,1008.06
2018-06-09T02:41:51.736Z,1008.02
2018-06-09T02:42:51.740Z,1008.04
2018-06-09T02:43:51.738Z,1008.04
2018-06-09T02:44:51.745Z,1008.03
2018-06-09T02:45:51.746Z,1008.03
2018-06-09T02:46:51.748Z,1008.03
2018-06-09T02:47:51.965Z,1008.03
2018-06-09T02:48:51.767Z,1008.01
2018-06-09T02:49:51.961Z,1008.01
2018-06-09T02:50:51.770Z,1007.97
2018-06-09T02:51:51.763Z,1007.98
2018-06-09T02:52:51.766Z,1007.97
2018-06-09T02:53:51.770Z,1007.95
2018-06-09T02:54:51.774Z,1007.97
2018-06-09T02:55:51.795Z,1007.96
2018-06-09T02:56:51.777Z,1007.93
2018-06-09T02:57:51.781Z,1007.92
2018-06-09T02:58:51.795Z,1007.91
2018-06-09T02:59:51.807Z,1007.90
2018-06-09T03:00:51.800Z,1007.89
2018-06-09T03:01:51.794Z,1007.88
2018-06-09T03:02:51.811Z,1007.87
2018-06-09T03:03:51.796Z,1007.87
2018-06-09T03:04:52.013Z,1007.90
2018-06-09T03:05:51.803Z,1007.86
2018-06-09T03:06:51.822Z,1007.87
2018-06-09T03:07:51.811Z,1007.85
2018-06-09T03:08:52.027Z,1007.89
2018-06-09T03:09:52.034Z,1007.90
2018-06-09T03:10:51.833Z,1007.89
2018-06-09T03:11:51.830Z,1007.88
2018-06-09T03:12:51.828Z,1007.89
2018-06-09T03:13:51.852Z,1007.91
2018-06-09T03:14:51.861Z,1007.88
2018-06-09T03:15:51.835Z,1007.89
2018-06-09T03:16:52.039Z,1007.88
2018-06-09T03:17:52.041Z,1007.89
2018-06-09T03:18:51.865Z,1007.88
2018-06-09T03:19:51.855Z,1007.90
2018-06-09T03:20:51.858Z,1007.90
2018-06-09T03:21:51.878Z,1007.88
2018-06-09T03:22:51.852Z,1007.93
2018-06-09T03:23:51.868Z,1007.93
2018-06-09T03:24:51.873Z,1007.92
2018-06-09T03:25:51.886Z,1007.96
2018-06-09T03:26:51.880Z,1007.96
2018-06-09T03:27:51.893Z,1007.98
2018-06-09T03:28:51.879Z,1007.99
2018-06-09T03:29:51.882Z,1008.01
2018-06-09T03:30:52.089Z,1007.99
2018-06-09T03:31:51.879Z,1008.04
2018-06-09T03:32:51.896Z,1008.06
2018-06-09T03:33:51.902Z,1008.00
2018-06-09T03:34:51.886Z,1008.05
2018-06-09T03:35:51.891Z,1008.01
2018-06-09T03:36:51.894Z,1008.00
2018-06-09T03:37:51.898Z,1008.04
2018-06-09T03:38:51.901Z,1008.05
2018-06-09T03:39:52.136Z,1008.02
2018-06-09T03:40:51.919Z,1008.06
2018-06-09T03:41:52.110Z,1008.04
2018-06-09T03:42:52.116Z,1008.03
2018-06-09T03:43:52.119Z,1008.02
2018-06-09T03:44:51.916Z,1008.03
2018-06-09T03:45:51.923Z,1008.05
2018-06-09T03:46:51.936Z,1008.07
2018-06-09T03:47:51.943Z,1008.05
2018-06-09T03:48:51.981Z,1008.05
2018-06-09T03:49:51.946Z,1008.04
2018-06-09T03:50:51.937Z,1008.06
2018-06-09T03:51:52.138Z,1008.09
2018-06-09T03:52:52.144Z,1008.08
2018-06-09T03:53:51.965Z,1008.07
2018-06-09T03:54:51.957Z,1008.07
2018-06-09T03:55:51.964Z,1008.11
2018-06-09T03:56:51.961Z,1008.08
2018-06-09T03:57:51.955Z,1008.12
2018-06-09T03:58:51.968Z,1008.09
2018-06-09T03:59:52.162Z,1008.14
2018-06-09T04:00:51.963Z,1008.14
2018-06-09T04:01:51.968Z,1008.18
2018-06-09T04:02:51.970Z,1008.21
2018-06-09T04:03:51.971Z,1008.26
2018-06-09T04:04:52.188Z,1008.26
2018-06-09T04:05:51.988Z,1008.25
2018-06-09T04:06:52.190Z,1008.30
2018-06-09T04:07:51.994Z,1008.32
2018-06-09T04:08:51.998Z,1008.33
2018-06-09T04:09:52.010Z,1008.31
2018-06-09T04:10:52.201Z,1008.31
2018-06-09T04:11:52.194Z,1008.34
2018-06-09T04:12:52.197Z,1008.32
2018-06-09T04:13:52.212Z,1008.30
2018-06-09T04:14:52.000Z,1008.31
2018-06-09T04:15:52.006Z,1008.33
2018-06-09T04:16:52.017Z,1008.29
2018-06-09T04:17:52.213Z,1008.30
2018-06-09T04:18:52.011Z,1008.29
2018-06-09T04:19:52.014Z,1008.28
2018-06-09T04:20:52.221Z,1008.26
2018-06-09T04:21:52.032Z,1008.32
2018-06-09T04:22:52.024Z,1008.28
2018-06-09T04:23:52.243Z,1008.28
2018-06-09T04:24:52.039Z,1008.30
2018-06-09T04:25:52.031Z,1008.32
2018-06-09T04:26:52.247Z,1008.34
2018-06-09T04:27:52.251Z,1008.29
2018-06-09T04:28:52.038Z,1008.30
2018-06-09T04:29:52.245Z,1008.32
2018-06-09T04:30:52.056Z,1008.33
2018-06-09T04:31:52.049Z,1008.30
2018-06-09T04:32:52.265Z,1008.28
2018-06-09T04:33:52.075Z,1008.30
2018-06-09T04:34:52.073Z,1008.26
2018-06-09T04:35:52.058Z,1008.28
2018-06-09T04:36:52.075Z,1008.26
2018-06-09T04:37:52.296Z,1008.25
2018-06-09T04:38:52.281Z,1008.24
2018-06-09T04:39:52.120Z,1008.24
2018-06-09T04:40:52.075Z,1008.23
2018-06-09T04:41:52.089Z,1008.23
2018-06-09T04:42:52.103Z,1008.22
2018-06-09T04:43:52.110Z,1008.24
2018-06-09T04:44:52.086Z,1008.23
2018-06-09T04:45:52.103Z,1008.22
2018-06-09T04:46:52.096Z,1008.24
2018-06-09T04:47:52.104Z,1008.27
2018-06-09T04:48:52.323Z,1008.25
2018-06-09T04:49:52.316Z,1008.23
2018-06-09T04:50:52.313Z,1008.25
2018-06-09T04:51:52.115Z,1008.21
2018-06-09T04:52:52.110Z,1008.21
2018-06-09T04:53:52.122Z,1008.21
2018-06-09T04:54:52.123Z,1008.22
2018-06-09T04:55:52.318Z,1008.24
2018-06-09T04:56:52.323Z,1008.25
2018-06-09T04:57:52.120Z,1008.25
2018-06-09T04:58:52.325Z,1008.27
2018-06-09T04:59:52.128Z,1008.27
2018-06-09T05:00:52.140Z,1008.26
2018-06-09T05:01:52.130Z,1008.28
2018-06-09T05:02:52.133Z,1008.27
2018-06-09T05:03:52.149Z,1008.25
2018-06-09T05:04:52.151Z,1008.28
2018-06-09T05:05:52.141Z,1008.28
2018-06-09T05:06:52.154Z,1008.27
2018-06-09T05:07:52.160Z,1008.29
2018-06-09T05:08:52.164Z,1008.31
2018-06-09T05:09:52.155Z,1008.36
2018-06-09T05:10:52.159Z,1008.36
2018-06-09T05:11:52.363Z,1008.35
2018-06-09T05:12:52.177Z,1008.36
2018-06-09T05:13:52.178Z,1008.32
2018-06-09T05:14:52.181Z,1008.35
2018-06-09T05:15:52.177Z,1008.35
2018-06-09T05:16:52.174Z,1008.35
2018-06-09T05:17:52.202Z,1008.34
2018-06-09T05:18:52.193Z,1008.34
2018-06-09T05:19:52.180Z,1008.34
2018-06-09T05:20:52.405Z,1008.37
2018-06-09T05:21:52.198Z,1008.35
2018-06-09T05:22:52.220Z,1008.29
2018-06-09T05:23:52.194Z,1008.29
2018-06-09T05:24:52.193Z,1008.26
2018-06-09T05:25:52.224Z,1008.30
2018-06-09T05:26:52.219Z,1008.29
2018-06-09T05:27:52.202Z,1008.24
2018-06-09T05:28:52.209Z,1008.28
2018-06-09T05:29:52.431Z,1008.28
2018-06-09T05:30:52.430Z,1008.28
2018-06-09T05:31:52.214Z,1008.29
2018-06-09T05:32:52.431Z,1008.23
2018-06-09T05:33:52.232Z,1008.20
2018-06-09T05:34:52.223Z,1008.24
2018-06-09T05:35:52.441Z,1008.24
2018-06-09T05:36:52.228Z,1008.19
2018-06-09T05:37:52.233Z,1008.19
2018-06-09T05:38:52.246Z,1008.24
2018-06-09T05:39:52.235Z,1008.26
2018-06-09T05:40:52.253Z,1008.22
2018-06-09T05:41:52.252Z,1008.26
2018-06-09T05:42:52.247Z,1008.28
2018-06-09T05:43:52.265Z,1008.25
2018-06-09T05:44:52.249Z,1008.25
2018-06-09T05:45:52.254Z,1008.26
2018-06-09T05:46:52.277Z,1008.30
2018-06-09T05:47:52.260Z,1008.32
2018-06-09T05:48:52.261Z,1008.27
2018-06-09T05:49:52.277Z,1008.26
2018-06-09T05:50:52.277Z,1008.28
2018-06-09T05:51:52.283Z,1008.31
2018-06-09T05:52:52.274Z,1008.29
2018-06-09T05:53:52.288Z,1008.31
2018-06-09T05:54:52.288Z,1008.32
2018-06-09T05:55:52.296Z,1008.32
2018-06-09T05:56:52.281Z,1008.35
2018-06-09T05:57:52.287Z,1008.31
2018-06-09T05:58:52.288Z,1008.35
2018-06-09T05:59:52.301Z,1008.34
2018-06-09T06:00:52.522Z,1008.34
2018-06-09T06:01:52.314Z,1008.36
2018-06-09T06:02:52.503Z,1008.38
2018-06-09T06:03:52.346Z,1008.38
2018-06-09T06:04:52.321Z,1008.41
2018-06-09T06:05:52.318Z,1008.39
2018-06-09T06:06:52.542Z,1008.40
2018-06-09T06:07:52.313Z,1008.43
2018-06-09T06:08:52.547Z,1008.42
2018-06-09T06:09:52.318Z,1008.39
2018-06-09T06:10:52.330Z,1008.41
2018-06-09T06:11:52.339Z,1008.38
2018-06-09T06:12:52.346Z,1008.41
2018-06-09T06:13:52.334Z,1008.47
2018-06-09T06:14:52.365Z,1008.48
2018-06-09T06:15:52.539Z,1008.52
2018-06-09T06:16:52.338Z,1008.54
2018-06-09T06:17:52.558Z,1008.54
2018-06-09T06:18:52.422Z,1008.60
2018-06-09T06:19:52.361Z,1008.57
2018-06-09T06:20:52.351Z,1008.62
2018-06-09T06:21:52.383Z,1008.59
2018-06-09T06:22:52.555Z,1008.58
2018-06-09T06:23:52.368Z,1008.62
2018-06-09T06:24:52.370Z,1008.60
2018-06-09T06:25:52.365Z,1008.58
2018-06-09T06:26:52.392Z,1008.55
2018-06-09T06:27:52.370Z,1008.54
2018-06-09T06:28:52.386Z,1008.54
2018-06-09T06:29:52.399Z,1008.53
2018-06-09T06:30:52.392Z,1008.53
2018-06-09T06:31:52.404Z,1008.57
2018-06-09T06:32:52.588Z,1008.56
2018-06-09T06:33:52.402Z,1008.56
2018-06-09T06:34:52.392Z,1008.55
2018-06-09T06:35:52.405Z,1008.58
2018-06-09T06:36:52.601Z,1008.56
2018-06-09T06:37:52.412Z,1008.60
2018-06-09T06:38:52.402Z,1008.59
2018-06-09T06:39:52.409Z,1008.56
2018-06-09T06:40:52.410Z,1008.59
2018-06-09T06:41:52.422Z,1008.58
2018-06-09T06:42:52.416Z,1008.56
2018-06-09T06:43:52.417Z,1008.62
2018-06-09T06:44:52.431Z,1008.61
2018-06-09T06:45:52.629Z,1008.60
2018-06-09T06:46:52.630Z,1008.63
2018-06-09T06:47:52.435Z,1008.65
2018-06-09T06:48:52.436Z,1008.68
2018-06-09T06:49:52.438Z,1008.67
2018-06-09T06:50:52.439Z,1008.70
2018-06-09T06:51:52.455Z,1008.72
2018-06-09T06:52:52.652Z,1008.72
2018-06-09T06:53:52.462Z,1008.72
2018-06-09T06:54:52.453Z,1008.71
2018-06-09T06:55:52.459Z,1008.71
2018-06-09T06:56:52.461Z,1008.76
2018-06-09T06:57:52.465Z,1008.73
2018-06-09T06:58:52.465Z,1008.69
2018-06-09T06:59:52.470Z,1008.69
2018-06-09T07:00:52.697Z,1008.71
2018-06-09T07:01:52.476Z,1008.71
2018-06-09T07:02:52.491Z,1008.68
2018-06-09T07:03:52.485Z,1008.68
2018-06-09T07:04:52.496Z,1008.65
2018-06-09T07:05:52.500Z,1008.66
2018-06-09T07:06:52.503Z,1008.66
2018-06-09T07:07:52.526Z,1008.66
2018-06-09T07:08:52.499Z,1008.66
2018-06-09T07:09:52.522Z,1008.67
2018-06-09T07:10:52.506Z,1008.67
2018-06-09T07:11:52.523Z,1008.66
2018-06-09T07:12:52.518Z,1008.64
2018-06-09T07:13:52.535Z,1008.66
2018-06-09T07:14:52.532Z,1008.65
2018-06-09T07:15:52.539Z,1008.65
2018-06-09T07:16:52.554Z,1008.65
2018-06-09T07:17:52.532Z,1008.65
2018-06-09T07:18:52.558Z,1008.66
2018-06-09T07:19:52.541Z,1008.65
2018-06-09T07:20:52.567Z,1008.67
2018-06-09T07:21:52.759Z,1008.69
2018-06-09T07:22:52.547Z,1008.66
2018-06-09T07:23:52.552Z,1008.71
2018-06-09T07:24:52.557Z,1008.69
2018-06-09T07:25:52.565Z,1008.69
2018-06-09T07:26:52.561Z,1008.71
2018-06-09T07:27:52.566Z,1008.71
2018-06-09T07:28:52.575Z,1008.74
2018-06-09T07:29:52.777Z,1008.74
2018-06-09T07:30:52.604Z,1008.78
2018-06-09T07:31:52.579Z,1008.76
2018-06-09T07:32:52.582Z,1008.77
2018-06-09T07:33:52.590Z,1008.73
2018-06-09T07:34:52.595Z,1008.77
2018-06-09T07:35:52.604Z,1008.74
2018-06-09T07:36:52.597Z,1008.72
2018-06-09T07:37:52.614Z,1008.74
2018-06-09T07:38:52.616Z,1008.67
2018-06-09T07:39:52.631Z,1008.67
2018-06-09T07:40:52.626Z,1008.73
2018-06-09T07:41:52.617Z,1008.66
2018-06-09T07:42:52.632Z,1008.69
2018-06-09T07:43:52.635Z,1008.66
2018-06-09T07:44:52.627Z,1008.66
2018-06-09T07:45:52.851Z,1008.68
2018-06-09T07:46:52.636Z,1008.68
2018-06-09T07:47:52.671Z,1008.63
2018-06-09T07:48:52.654Z,1008.68
2018-06-09T07:49:52.661Z,1008.70
2018-06-09T07:50:52.648Z,1008.69
2018-06-09T07:51:52.653Z,1008.68
2018-06-09T07:52:52.657Z,1008.66
2018-06-09T07:53:52.679Z,1008.65
2018-06-09T07:54:52.675Z,1008.63
2018-06-09T07:55:52.680Z,1008.63
2018-06-09T07:56:52.681Z,1008.65
2018-06-09T07:57:52.689Z,1008.65
2018-06-09T07:58:52.679Z,1008.68
2018-06-09T07:59:52.693Z,1008.68
2018-06-09T08:00:52.686Z,1008.74
2018-06-09T08:01:52.692Z,1008.71
2018-06-09T08:02:52.705Z,1008.74
2018-06-09T08:03:52.706Z,1008.75
2018-06-09T08:04:52.703Z,1008.72
2018-06-09T08:05:52.706Z,1008.71
2018-06-09T08:06:52.759Z,1008.73
2018-06-09T08:07:52.723Z,1008.75
2018-06-09T08:08:52.716Z,1008.75
2018-06-09T08:09:52.729Z,1008.77
2018-06-09T08:10:52.926Z,1008.77
2018-06-09T08:11:52.727Z,1008.76
2018-06-09T08:12:52.945Z,1008.76
2018-06-09T08:13:52.738Z,1008.75
2018-06-09T08:14:52.735Z,1008.71
2018-06-09T08:15:52.754Z,1008.75
2018-06-09T08:16:52.761Z,1008.73
2018-06-09T08:17:52.763Z,1008.72
2018-06-09T08:18:52.759Z,1008.71
2018-06-09T08:19:52.755Z,1008.74
2018-06-09T08:20:52.763Z,1008.75
2018-06-09T08:21:52.779Z,1008.70
2018-06-09T08:22:52.770Z,1008.70
2018-06-09T08:23:52.773Z,1008.70
2018-06-09T08:24:52.776Z,1008.69
2018-06-09T08:25:52.781Z,1008.70
2018-06-09T08:26:52.797Z,1008.71
2018-06-09T08:27:52.788Z,1008.74
2018-06-09T08:28:52.815Z,1008.70
2018-06-09T08:29:52.808Z,1008.71
2018-06-09T08:30:52.797Z,1008.77
2018-06-09T08:31:52.804Z,1008.78
2018-06-09T08:32:52.817Z,1008.74
2018-06-09T08:33:52.813Z,1008.75
2018-06-09T08:34:53.018Z,1008.75
2018-06-09T08:35:52.817Z,1008.74
2018-06-09T08:36:52.839Z,1008.70
2018-06-09T08:37:52.826Z,1008.70
2018-06-09T08:38:52.850Z,1008.69
2018-06-09T08:39:52.864Z,1008.70
2018-06-09T08:40:52.839Z,1008.66
2018-06-09T08:41:53.056Z,1008.69
2018-06-09T08:42:52.868Z,1008.69
2018-06-09T08:43:52.845Z,1008.73
2018-06-09T08:44:52.869Z,1008.72
2018-06-09T08:45:52.887Z,1008.70
2018-06-09T08:46:53.086Z,1008.73
2018-06-09T08:47:52.893Z,1008.73
2018-06-09T08:48:52.866Z,1008.67
2018-06-09T08:49:52.872Z,1008.66
2018-06-09T08:50:52.897Z,1008.65
2018-06-09T08:51:52.895Z,1008.60
2018-06-09T08:52:52.897Z,1008.62
2018-06-09T08:53:53.092Z,1008.61
2018-06-09T08:54:52.888Z,1008.64
2018-06-09T08:55:52.902Z,1008.65
2018-06-09T08:56:52.937Z,1008.66
2018-06-09T08:57:52.900Z,1008.67
2018-06-09T08:58:53.112Z,1008.69
2018-06-09T08:59:52.908Z,1008.69
2018-06-09T09:00:52.928Z,1008.67
2018-06-09T09:01:52.929Z,1008.68
2018-06-09T09:02:52.930Z,1008.70
2018-06-09T09:03:52.933Z,1008.67
2018-06-09T09:04:52.927Z,1008.70
2018-06-09T09:05:52.933Z,1008.70
2018-06-09T09:06:53.162Z,1008.70
2018-06-09T09:07:53.153Z,1008.72
2018-06-09T09:08:52.940Z,1008.72
2018-06-09T09:09:52.963Z,1008.75
2018-06-09T09:10:52.950Z,1008.76
2018-06-09T09:11:52.951Z,1008.75
2018-06-09T09:12:52.967Z,1008.78
2018-06-09T09:13:52.978Z,1008.77
2018-06-09T09:14:52.965Z,1008.77
2018-06-09T09:15:52.969Z,1008.76
2018-06-09T09:16:53.187Z,1008.77
2018-06-09T09:17:52.976Z,1008.78
2018-06-09T09:18:52.996Z,1008.73
2018-06-09T09:19:52.983Z,1008.73
2018-06-09T09:20:52.990Z,1008.78
2018-06-09T09:21:53.007Z,1008.75
2018-06-09T09:22:53.008Z,1008.73
2018-06-09T09:23:52.997Z,1008.75
2018-06-09T09:24:53.027Z,1008.72
2018-06-09T09:25:53.019Z,1008.72
2018-06-09T09:26:53.019Z,1008.70
2018-06-09T09:27:53.039Z,1008.69
2018-06-09T09:28:53.020Z,1008.69
2018-06-09T09:29:53.224Z,1008.67
2018-06-09T09:30:53.023Z,1008.65
2018-06-09T09:31:53.060Z,1008.68
2018-06-09T09:32:53.032Z,1008.72
2018-06-09T09:33:53.063Z,1008.78
2018-06-09T09:34:53.041Z,1008.72
2018-06-09T09:35:53.042Z,1008.73
2018-06-09T09:36:53.057Z,1008.74
2018-06-09T09:37:53.051Z,1008.77
2018-06-09T09:38:53.055Z,1008.71
2018-06-09T09:39:53.062Z,1008.75
2018-06-09T09:40:53.062Z,1008.72
2018-06-09T09:41:53.068Z,1008.71
2018-06-09T09:42:53.270Z,1008.72
2018-06-09T09:43:53.071Z,1008.69
2018-06-09T09:44:53.087Z,1008.70
2018-06-09T09:45:53.293Z,1008.70
2018-06-09T09:46:53.092Z,1008.74
2018-06-09T09:47:53.087Z,1008.68
2018-06-09T09:48:53.092Z,1008.70
2018-06-09T09:49:53.097Z,1008.70
2018-06-09T09:50:53.110Z,1008.69
2018-06-09T09:51:53.115Z,1008.73
2018-06-09T09:52:53.104Z,1008.73
2018-06-09T09:53:53.121Z,1008.71
2018-06-09T09:54:53.130Z,1008.69
2018-06-09T09:55:53.163Z,1008.72
2018-06-09T09:56:53.123Z,1008.71
2018-06-09T09:57:53.350Z,1008.74
2018-06-09T09:58:53.137Z,1008.72
2018-06-09T09:59:53.130Z,1008.75
2018-06-09T10:00:53.138Z,1008.69
2018-06-09T10:01:53.139Z,1008.73
2018-06-09T10:02:53.358Z,1008.76
2018-06-09T10:03:53.147Z,1008.71
2018-06-09T10:04:53.150Z,1008.66
2018-06-09T10:05:53.163Z,1008.69
2018-06-09T10:06:53.155Z,1008.67
2018-06-09T10:07:53.362Z,1008.69
2018-06-09T10:08:53.166Z,1008.69
2018-06-09T10:09:53.179Z,1008.67
2018-06-09T10:10:53.173Z,1008.64
2018-06-09T10:11:53.174Z,1008.64
2018-06-09T10:12:53.183Z,1008.64
2018-06-09T10:13:53.193Z,1008.60
2018-06-09T10:14:53.186Z,1008.62
2018-06-09T10:15:53.401Z,1008.58
2018-06-09T10:16:53.197Z,1008.59
2018-06-09T10:17:53.196Z,1008.56
2018-06-09T10:18:53.200Z,1008.57
2018-06-09T10:19:53.207Z,1008.57
2018-06-09T10:20:53.209Z,1008.59
2018-06-09T10:21:53.225Z,1008.57
2018-06-09T10:22:53.219Z,1008.54
2018-06-09T10:23:53.218Z,1008.55
2018-06-09T10:24:53.234Z,1008.57
2018-06-09T10:25:53.429Z,1008.54
2018-06-09T10:26:53.242Z,1008.52
2018-06-09T10:27:53.237Z,1008.56
2018-06-09T10:28:53.442Z,1008.54
2018-06-09T10:29:53.245Z,1008.50
2018-06-09T10:30:53.243Z,1008.50
2018-06-09T10:31:53.250Z,1008.50
2018-06-09T10:32:53.334Z,1008.53
2018-06-09T10:33:53.258Z,1008.52
2018-06-09T10:34:53.263Z,1008.52
2018-06-09T10:35:53.264Z,1008.53
2018-06-09T10:36:53.279Z,1008.54
2018-06-09T10:37:53.295Z,1008.53
2018-06-09T10:38:53.275Z,1008.54
2018-06-09T10:39:53.279Z,1008.55
2018-06-09T10:40:53.283Z,1008.57
2018-06-09T10:41:53.288Z,1008.54
2018-06-09T10:42:53.293Z,1008.52
2018-06-09T10:43:53.298Z,1008.51
2018-06-09T10:44:53.301Z,1008.51
2018-06-09T10:45:53.304Z,1008.49
2018-06-09T10:46:53.305Z,1008.51
2018-06-09T10:47:53.317Z,1008.50
2018-06-09T10:48:53.313Z,1008.48
2018-06-09T10:49:53.330Z,1008.47
2018-06-09T10:50:53.555Z,1008.44
2018-06-09T10:51:53.527Z,1008.43
2018-06-09T10:52:53.332Z,1008.43
2018-06-09T10:53:53.344Z,1008.44
2018-06-09T10:54:53.336Z,1008.40
2018-06-09T10:55:53.361Z,1008.43
2018-06-09T10:56:53.345Z,1008.42
2018-06-09T10:57:53.349Z,1008.40
2018-06-09T10:58:53.351Z,1008.41
2018-06-09T10:59:53.387Z,1008.38
2018-06-09T11:00:53.365Z,1008.43
2018-06-09T11:01:53.381Z,1008.44
2018-06-09T11:02:53.368Z,1008.43
2018-06-09T11:03:53.388Z,1008.45
2018-06-09T11:04:53.379Z,1008.47
2018-06-09T11:05:53.381Z,1008.48
2018-06-09T11:06:53.397Z,1008.47
2018-06-09T11:07:53.403Z,1008.45
2018-06-09T11:08:53.390Z,1008.46
2018-06-09T11:09:53.412Z,1008.47
2018-06-09T11:10:53.427Z,1008.44
2018-06-09T11:11:53.405Z,1008.46
2018-06-09T11:12:53.417Z,1008.43
2018-06-09T11:13:53.436Z,1008.44
2018-06-09T11:14:53.427Z,1008.39
2018-06-09T11:15:53.444Z,1008.39
2018-06-09T11:16:53.425Z,1008.42
2018-06-09T11:17:53.431Z,1008.39
2018-06-09T11:18:53.450Z,1008.38
2018-06-09T11:19:53.454Z,1008.36
2018-06-09T11:20:53.449Z,1008.37
2018-06-09T11:21:53.454Z,1008.37
2018-06-09T11:22:53.466Z,1008.34
2018-06-09T11:23:53.667Z,1008.33
2018-06-09T11:24:53.452Z,1008.32
2018-06-09T11:25:53.457Z,1008.32
2018-06-09T11:26:53.462Z,1008.29
2018-06-09T11:27:53.475Z,1008.28
2018-06-09T11:28:53.469Z,1008.25
2018-06-09T11:29:53.484Z,1008.22
2018-06-09T11:30:53.488Z,1008.23
2018-06-09T11:31:53.485Z,1008.27
2018-06-09T11:32:53.698Z,1008.23
2018-06-09T11:33:53.495Z,1008.26
2018-06-09T11:34:53.493Z,1008.28
2018-06-09T11:35:53.510Z,1008.23
2018-06-09T11:36:53.704Z,1008.23
2018-06-09T11:37:53.516Z,1008.21
2018-06-09T11:38:53.511Z,1008.20
2018-06-09T11:39:53.517Z,1008.24
2018-06-09T11:40:53.718Z,1008.22
2018-06-09T11:41:53.725Z,1008.18
2018-06-09T11:42:53.525Z,1008.17
2018-06-09T11:43:53.531Z,1008.18
2018-06-09T11:44:53.544Z,1008.19
2018-06-09T11:45:53.537Z,1008.15
2018-06-09T11:46:53.547Z,1008.17
2018-06-09T11:47:53.544Z,1008.16
2018-06-09T11:48:53.548Z,1008.17
2018-06-09T11:49:53.758Z,1008.14
2018-06-09T11:50:53.558Z,1008.12
2018-06-09T11:51:53.575Z,1008.13
2018-06-09T11:52:53.780Z,1008.08
2018-06-09T11:53:53.571Z,1008.11
2018-06-09T11:54:53.582Z,1008.10
2018-06-09T11:55:53.577Z,1008.11
2018-06-09T11:56:53.580Z,1008.09
2018-06-09T11:57:53.599Z,1008.14
2018-06-09T11:58:53.608Z,1008.13
2018-06-09T11:59:53.593Z,1008.11
2018-06-09T12:00:53.596Z,1008.13
2018-06-09T12:01:53.803Z,1008.14
2018-06-09T12:02:53.636Z,1008.11
2018-06-09T12:03:53.618Z,1008.10
2018-06-09T12:04:53.614Z,1008.06
2018-06-09T12:05:53.627Z,1008.10